Time;durP1;ratioP1;P1;durP2;ratioP2;P2;SDS_P1;SDS_P2;PMS_P1;PMS_P2;Temp;Humidity;BMP_temperature;BMP_pressure;BME280_temperature;BME280_humidity;BME280_pressure;Samples;Min_cycle;Max_cycle;Signal;HPM_P1;HPM_P2
2023/07/05 00:02:03;;;;;;;1.88;1.20;;;;;;;;;;10424839;28;20037;-74
2023/07/05 00:07:06;;;;;;;1.73;0.80;;;;;;;;;;10424045;28;20048;-73
2023/07/05 00:12:10;;;;;;;2.03;1.10;;;;;;;;;;10429578;28;20045;-74
2023/07/05 00:17:13;;;;;;;0.45;0.45;;;;;;;;;;10429569;28;20540;-72
2023/07/05 00:22:16;;;;;;;3.43;1.30;;;;;;;;;;10429265;28;20577;-74
2023/07/05 00:27:20;;;;;;;1.63;0.93;;;;;;;;;;10426304;28;20310;-73
2023/07/05 00:32:23;;;;;;;2.65;1.33;;;;;;;;;;10431027;28;20053;-73
2023/07/05 00:37:25;;;;;;;0.30;0.30;;;;;;;;;;10430698;28;20204;-73
2023/07/05 00:42:30;;;;;;;3.08;1.23;;;;;;;;;;10431632;28;20502;-74
2023/07/05 00:47:33;;;;;;;2.15;1.00;;;;;;;;;;10434603;28;20083;-74
2023/07/05 00:52:36;;;;;;;2.80;1.10;;;;;;;;;;10423888;28;20068;-75
2023/07/05 00:57:40;;;;;;;1.17;0.90;;;;;;;;;;10437281;28;20040;-76
2023/07/05 01:02:46;;;;;;;1.63;0.95;;;;;;;;;;10434789;28;20394;-75
2023/07/05 01:07:48;;;;;;;2.20;1.20;;;;;;;;;;10428273;28;20398;-76
2023/07/05 01:12:57;;;;;;;2.13;1.25;;;;;;;;;;10429872;28;20045;-75
2023/07/05 01:18:03;;;;;;;1.27;1.00;;;;;;;;;;10428631;28;20040;-75
2023/07/05 01:23:16;;;;;;;1.00;0.85;;;;;;;;;;10430177;28;20052;-73
2023/07/05 01:28:27;;;;;;;2.92;1.13;;;;;;;;;;10429055;28;20044;-73
2023/07/05 01:33:33;;;;;;;1.83;1.30;;;;;;;;;;10428577;28;20045;-73
2023/07/05 01:38:36;;;;;;;3.92;1.23;;;;;;;;;;10438672;28;20147;-73
2023/07/05 01:43:40;;;;;;;3.50;1.80;;;;;;;;;;10426803;28;20523;-74
2023/07/05 01:48:42;;;;;;;;;;;;;;;;;;10432246;28;20131;-72
2023/07/05 01:53:52;;;;;;;2.67;1.55;;;;;;;;;;10425367;28;20601;-73
2023/07/05 01:58:57;;;;;;;2.00;1.30;;;;;;;;;;10426272;28;20493;-72
2023/07/05 02:04:01;;;;;;;3.33;1.45;;;;;;;;;;10429525;28;20518;-73
2023/07/05 02:09:05;;;;;;;2.83;1.45;;;;;;;;;;10425210;28;20152;-73
2023/07/05 02:14:07;;;;;;;3.45;1.50;;;;;;;;;;10424942;28;20051;-73
2023/07/05 02:19:10;;;;;;;3.33;1.30;;;;;;;;;;10423303;28;20124;-75
2023/07/05 02:24:14;;;;;;;2.72;1.60;;;;;;;;;;10428111;28;20095;-74
2023/07/05 02:29:17;;;;;;;3.65;1.48;;;;;;;;;;10424288;28;20040;-73
2023/07/05 02:34:20;;;;;;;5.03;1.70;;;;;;;;;;10430321;28;20040;-74
2023/07/05 02:39:23;;;;;;;2.92;1.48;;;;;;;;;;10426719;28;20047;-73
2023/07/05 02:44:26;;;;;;;2.35;1.50;;;;;;;;;;10425921;28;20037;-73
2023/07/05 02:49:29;;;;;;;3.58;1.48;;;;;;;;;;10424506;28;20040;-72
2023/07/05 02:54:33;;;;;;;3.23;1.50;;;;;;;;;;10424765;28;20044;-75
2023/07/05 02:59:36;;;;;;;2.78;1.35;;;;;;;;;;10420612;28;20041;-73
2023/07/05 03:04:39;;;;;;;2.60;1.50;;;;;;;;;;10423422;28;20045;-73
2023/07/05 03:09:48;;;;;;;3.55;1.40;;;;;;;;;;10424269;28;20402;-73
2023/07/05 03:14:52;;;;;;;2.85;1.60;;;;;;;;;;10427382;28;20045;-74
2023/07/05 03:19:57;;;;;;;3.75;1.60;;;;;;;;;;10428188;28;20069;-74
2023/07/05 03:25:01;;;;;;;3.13;1.42;;;;;;;;;;10424904;28;20079;-74
2023/07/05 03:30:04;;;;;;;4.82;2.28;;;;;;;;;;10425696;28;20499;-73
2023/07/05 03:35:07;;;;;;;9.57;3.65;;;;;;;;;;10422437;28;20457;-73
2023/07/05 03:40:12;;;;;;;4.90;2.20;;;;;;;;;;10424209;28;20130;-73
2023/07/05 03:45:15;;;;;;;2.42;1.52;;;;;;;;;;10424833;28;20128;-72
2023/07/05 03:50:18;;;;;;;4.03;2.17;;;;;;;;;;10421768;28;20033;-72
2023/07/05 03:55:23;;;;;;;5.38;2.00;;;;;;;;;;10424655;28;20048;-73
2023/07/05 04:00:25;;;;;;;2.45;1.17;;;;;;;;;;10423693;28;20033;-74
2023/07/05 04:05:28;;;;;;;3.97;1.80;;;;;;;;;;10427631;28;20049;-74
2023/07/05 04:10:32;;;;;;;1.95;1.20;;;;;;;;;;10429734;28;20309;-73
2023/07/05 04:15:35;;;;;;;2.00;1.48;;;;;;;;;;10430944;28;20041;-74
2023/07/05 04:20:38;;;;;;;2.53;1.20;;;;;;;;;;10430274;28;20037;-74
2023/07/05 04:25:42;;;;;;;1.52;0.70;;;;;;;;;;10430167;28;20310;-73
2023/07/05 04:30:45;;;;;;;1.65;1.00;;;;;;;;;;10429443;28;20072;-73
2023/07/05 04:35:49;;;;;;;2.70;1.57;;;;;;;;;;10444207;28;20075;-74
2023/07/05 04:40:53;;;;;;;2.83;1.60;;;;;;;;;;10428547;28;20062;-73
2023/07/05 04:45:57;;;;;;;3.05;1.40;;;;;;;;;;10431835;28;20045;-75
2023/07/05 04:51:00;;;;;;;;;;;;;;;;;;10432159;28;20041;-74
2023/07/05 04:56:04;;;;;;;2.65;1.15;;;;;;;;;;10434919;28;19960;-75
2023/07/05 05:01:10;;;;;;;4.10;1.80;;;;;;;;;;10432753;28;20445;-74
2023/07/05 05:06:13;;;;;;;4.03;1.73;;;;;;;;;;10430907;28;20605;-73
2023/07/05 05:11:18;;;;;;;2.22;1.48;;;;;;;;;;10432547;28;20077;-74
2023/07/05 05:16:21;;;;;;;3.00;1.50;;;;;;;;;;10429785;28;20060;-74
2023/07/05 05:21:24;;;;;;;4.22;1.48;;;;;;;;;;10424994;28;21916;-74
2023/07/05 05:26:28;;;;;;;3.35;1.70;;;;;;;;;;10428822;28;20045;-75
2023/07/05 05:31:31;;;;;;;3.95;1.48;;;;;;;;;;10411073;28;20045;-75
2023/07/05 05:36:34;;;;;;;5.28;1.70;;;;;;;;;;10414518;28;20048;-75
2023/07/05 05:41:38;;;;;;;3.40;1.50;;;;;;;;;;10435411;28;21241;-74
2023/07/05 05:46:41;;;;;;;2.60;1.20;;;;;;;;;;10431590;28;20817;-75
2023/07/05 05:51:44;;;;;;;4.70;1.60;;;;;;;;;;10436488;28;20119;-74
2023/07/05 05:56:48;;;;;;;3.53;1.75;;;;;;;;;;10429740;28;20115;-75
2023/07/05 06:01:52;;;;;;;2.10;1.30;;;;;;;;;;10436356;28;20040;-74
2023/07/05 06:06:55;;;;;;;1.30;0.95;;;;;;;;;;10426143;28;20171;-75
2023/07/05 06:11:59;;;;;;;2.55;1.52;;;;;;;;;;10425311;28;20589;-75
2023/07/05 06:17:02;;;;;;;3.53;1.67;;;;;;;;;;10429863;28;21366;-74
2023/07/05 06:22:05;;;;;;;;;;;;;;;;;;10426144;28;20414;-74
2023/07/05 06:27:09;;;;;;;2.17;1.50;;;;;;;;;;10429691;28;20008;-74
2023/07/05 06:32:12;;;;;;;3.17;1.55;;;;;;;;;;10423996;28;20609;-75
2023/07/05 06:37:16;;;;;;;2.38;1.30;;;;;;;;;;10428047;28;20045;-74
2023/07/05 06:42:20;;;;;;;3.92;1.40;;;;;;;;;;10433934;28;20049;-75
2023/07/05 06:47:23;;;;;;;4.03;2.03;;;;;;;;;;10421868;28;20080;-75
2023/07/05 06:52:26;;;;;;;2.95;1.48;;;;;;;;;;10423531;28;20056;-75
2023/07/05 06:57:30;;;;;;;4.93;1.50;;;;;;;;;;10422487;28;20644;-75
2023/07/05 07:02:33;;;;;;;2.53;1.40;;;;;;;;;;10420367;28;20505;-74
2023/07/05 07:07:36;;;;;;;2.75;1.58;;;;;;;;;;10422752;28;20052;-74
2023/07/05 07:12:40;;;;;;;3.45;1.65;;;;;;;;;;10422464;28;20140;-74
2023/07/05 07:17:43;;;;;;;3.33;1.52;;;;;;;;;;10424662;28;20036;-73
2023/07/05 07:22:45;;;;;;;1.98;1.35;;;;;;;;;;10423909;28;20043;-74
2023/07/05 07:27:50;;;;;;;2.05;1.40;;;;;;;;;;10425180;28;20053;-74
2023/07/05 07:32:53;;;;;;;2.58;1.35;;;;;;;;;;10432630;28;20742;-75
2023/07/05 07:37:55;;;;;;;2.80;1.60;;;;;;;;;;10420373;28;20048;-76
2023/07/05 07:42:59;;;;;;;2.33;1.50;;;;;;;;;;10423646;28;20037;-74
2023/07/05 07:48:02;;;;;;;2.38;1.27;;;;;;;;;;10416605;28;20060;-75
2023/07/05 07:53:05;;;;;;;2.80;1.60;;;;;;;;;;10421757;28;20033;-75
2023/07/05 07:58:09;;;;;;;3.78;1.55;;;;;;;;;;10419986;28;20810;-75
2023/07/05 08:03:12;;;;;;;2.47;1.60;;;;;;;;;;10419334;28;20567;-75
2023/07/05 08:08:15;;;;;;;2.92;1.88;;;;;;;;;;10421727;28;20466;-74
2023/07/05 08:13:22;;;;;;;3.83;1.60;;;;;;;;;;10420770;28;20048;-74
2023/07/05 08:18:25;;;;;;;4.95;2.00;;;;;;;;;;10420194;28;20295;-75
2023/07/05 08:23:28;;;;;;;3.83;2.20;;;;;;;;;;10428323;28;20055;-75
2023/07/05 08:28:32;;;;;;;2.72;1.95;;;;;;;;;;10421409;28;20094;-75
2023/07/05 08:33:36;;;;;;;3.20;1.88;;;;;;;;;;10421499;28;20096;-75
2023/07/05 08:38:39;;;;;;;4.55;1.88;;;;;;;;;;10416308;28;20049;-75
2023/07/05 08:43:45;;;;;;;2.70;1.50;;;;;;;;;;10412882;28;20409;-76
2023/07/05 08:48:49;;;;;;;2.60;1.80;;;;;;;;;;10398077;28;20053;-76
2023/07/05 08:53:53;;;;;;;3.25;1.95;;;;;;;;;;10424182;28;20538;-75
2023/07/05 08:59:01;;;;;;;3.75;2.00;;;;;;;;;;10428024;28;20454;-75
2023/07/05 09:04:04;;;;;;;4.10;2.47;;;;;;;;;;10436701;28;20037;-74
2023/07/05 09:09:20;;;;;;;2.58;1.73;;;;;;;;;;10425611;28;20875;-74
2023/07/05 09:14:32;;;;;;;2.75;1.88;;;;;;;;;;10437135;28;20609;-76
2023/07/05 09:19:44;;;;;;;2.50;1.70;;;;;;;;;;10432749;28;20146;-76
2023/07/05 09:24:47;;;;;;;3.15;2.00;;;;;;;;;;10435077;28;20131;-76
2023/07/05 09:29:54;;;;;;;2.58;2.20;;;;;;;;;;10429116;28;20112;-75
2023/07/05 09:34:58;;;;;;;4.07;2.42;;;;;;;;;;10418810;28;20068;-75
2023/07/05 09:40:06;;;;;;;4.75;1.90;;;;;;;;;;10434550;28;20064;-74
2023/07/05 09:45:13;;;;;;;2.33;2.08;;;;;;;;;;10428513;28;20049;-75
2023/07/05 09:50:17;;;;;;;7.80;2.60;;;;;;;;;;10427596;28;20037;-75
2023/07/05 09:55:20;;;;;;;3.38;2.10;;;;;;;;;;10429161;28;20679;-76
2023/07/05 10:00:27;;;;;;;4.00;2.28;;;;;;;;;;10428309;28;20040;-76
2023/07/05 10:05:30;;;;;;;4.20;2.65;;;;;;;;;;10432042;28;20045;-75
2023/07/05 10:10:34;;;;;;;4.35;2.35;;;;;;;;;;10426603;28;20040;-75
2023/07/05 10:15:43;;;;;;;5.90;3.05;;;;;;;;;;10431440;28;20037;-75
2023/07/05 10:20:47;;;;;;;4.05;2.63;;;;;;;;;;10428588;28;20570;-74
2023/07/05 10:25:51;;;;;;;3.88;2.65;;;;;;;;;;10426988;28;20555;-74
2023/07/05 10:30:57;;;;;;;4.00;2.70;;;;;;;;;;10429330;28;20045;-74
2023/07/05 10:36:02;;;;;;;4.50;2.72;;;;;;;;;;10428536;28;20045;-74
2023/07/05 10:41:14;;;;;;;3.30;2.50;;;;;;;;;;10429530;28;20048;-74
2023/07/05 10:46:19;;;;;;;4.47;2.65;;;;;;;;;;10427317;28;20220;-74
2023/07/05 10:51:24;;;;;;;4.25;2.28;;;;;;;;;;10426966;28;20056;-74
2023/07/05 10:56:30;;;;;;;3.67;1.90;;;;;;;;;;10431226;28;20092;-74
2023/07/05 11:01:38;;;;;;;6.00;2.20;;;;;;;;;;10424304;28;20496;-75
2023/07/05 11:06:42;;;;;;;6.22;2.78;;;;;;;;;;10424740;28;20303;-73
2023/07/05 11:11:46;;;;;;;3.42;1.77;;;;;;;;;;10427604;28;20482;-75
2023/07/05 11:16:51;;;;;;;9.68;2.55;;;;;;;;;;10423865;28;20041;-75
2023/07/05 11:21:54;;;;;;;8.50;3.17;;;;;;;;;;10403978;28;20037;-74
2023/07/05 11:26:57;;;;;;;8.35;2.78;;;;;;;;;;10425271;28;20063;-75
2023/07/05 11:31:59;;;;;;;;;;;;;;;;;;10422099;28;20036;-74
2023/07/05 11:37:17;;;;;;;8.10;3.57;;;;;;;;;;10408097;28;19936;-75
2023/07/05 11:42:40;;;;;;;4.68;1.92;;;;;;;;;;10424723;28;20033;-75
2023/07/05 11:47:47;;;;;;;4.13;1.93;;;;;;;;;;10431249;28;21596;-75
2023/07/05 11:52:55;;;;;;;6.57;2.53;;;;;;;;;;10423881;28;20112;-75
2023/07/05 11:58:01;;;;;;;5.18;2.35;;;;;;;;;;10425922;28;20065;-75
2023/07/05 12:03:08;;;;;;;3.65;1.60;;;;;;;;;;10424315;28;20045;-75
2023/07/05 12:08:13;;;;;;;6.60;2.42;;;;;;;;;;10420291;28;20043;-75
2023/07/05 12:13:22;;;;;;;4.00;1.50;;;;;;;;;;10423318;28;20347;-75
2023/07/05 12:18:25;;;;;;;4.05;1.70;;;;;;;;;;10421293;28;20550;-75
2023/07/05 12:23:28;;;;;;;;;;;;;;;;;;10423867;28;20498;-74
2023/07/05 12:28:33;;;;;;;4.72;2.17;;;;;;;;;;10422952;28;19999;-76
2023/07/05 12:33:37;;;;;;;6.82;2.30;;;;;;;;;;10424234;28;20056;-76
2023/07/05 12:38:40;;;;;;;4.95;2.10;;;;;;;;;;10426737;28;20445;-74
2023/07/05 12:43:44;;;;;;;2.75;1.73;;;;;;;;;;10429402;28;20509;-75
2023/07/05 12:48:48;;;;;;;2.75;1.58;;;;;;;;;;10427551;28;20080;-76
2023/07/05 12:53:52;;;;;;;2.30;1.42;;;;;;;;;;10407475;28;20052;-75
2023/07/05 12:58:59;;;;;;;5.28;1.65;;;;;;;;;;10421257;28;20053;-75
2023/07/05 13:04:03;;;;;;;3.78;1.45;;;;;;;;;;10425041;28;20180;-75
2023/07/05 13:09:07;;;;;;;3.05;1.52;;;;;;;;;;10422662;28;20148;-75
2023/07/05 13:14:24;;;;;;;1.40;1.02;;;;;;;;;;10421718;28;20129;-76
2023/07/05 13:19:40;;;;;;;2.13;1.17;;;;;;;;;;10422956;28;20482;-75
2023/07/05 13:24:45;;;;;;;5.68;1.95;;;;;;;;;;10426379;28;20131;-75
2023/07/05 13:29:50;;;;;;;2.92;1.20;;;;;;;;;;10432429;28;20127;-74
2023/07/05 13:34:52;;;;;;;3.08;1.08;;;;;;;;;;10426052;28;20049;-75
2023/07/05 13:39:56;;;;;;;4.60;1.35;;;;;;;;;;10432583;28;20080;-74
2023/07/05 13:45:00;;;;;;;2.35;1.30;;;;;;;;;;10423052;28;20106;-75
2023/07/05 13:50:04;;;;;;;2.28;1.35;;;;;;;;;;10420179;28;20636;-74
2023/07/05 13:55:10;;;;;;;3.08;1.40;;;;;;;;;;10417553;28;20107;-75
2023/07/05 14:00:15;;;;;;;3.22;1.08;;;;;;;;;;10416861;28;20043;-74
2023/07/05 14:05:18;;;;;;;3.25;1.58;;;;;;;;;;10416100;28;20049;-74
2023/07/05 14:10:21;;;;;;;4.20;1.67;;;;;;;;;;10418413;28;20609;-74
2023/07/05 14:15:30;;;;;;;1.65;1.20;;;;;;;;;;10419486;28;20581;-74
2023/07/05 14:20:34;;;;;;;2.25;1.30;;;;;;;;;;10425047;28;20136;-74
2023/07/05 14:25:41;;;;;;;3.35;1.38;;;;;;;;;;10421733;28;20067;-75
2023/07/05 14:30:45;;;;;;;2.08;1.00;;;;;;;;;;10423769;28;20500;-75
2023/07/05 14:35:48;;;;;;;1.95;1.20;;;;;;;;;;10420579;28;20048;-73
2023/07/05 14:40:51;;;;;;;1.05;0.70;;;;;;;;;;10416713;28;20520;-76
2023/07/05 14:45:55;;;;;;;2.35;1.10;;;;;;;;;;10421218;28;20088;-75
2023/07/05 14:50:57;;;;;;;2.67;1.23;;;;;;;;;;10417765;28;20093;-73
2023/07/05 14:56:03;;;;;;;1.58;0.77;;;;;;;;;;10415318;28;20055;-74
2023/07/05 15:01:11;;;;;;;2.97;1.08;;;;;;;;;;10416805;28;20040;-74
2023/07/05 15:06:17;;;;;;;2.50;1.20;;;;;;;;;;10416802;28;20494;-72
2023/07/05 15:11:19;;;;;;;2.80;1.00;;;;;;;;;;10421079;28;20084;-74
2023/07/05 15:16:24;;;;;;;3.03;1.02;;;;;;;;;;10425773;28;20359;-74
2023/07/05 15:21:27;;;;;;;2.70;1.30;;;;;;;;;;10420916;28;20538;-75
2023/07/05 15:26:31;;;;;;;2.35;0.80;;;;;;;;;;10424425;28;20049;-74
2023/07/05 15:31:36;;;;;;;2.08;1.08;;;;;;;;;;10422679;28;20063;-73
2023/07/05 15:36:39;;;;;;;1.42;1.00;;;;;;;;;;10419836;28;20040;-73
2023/07/05 15:41:42;;;;;;;2.10;1.50;;;;;;;;;;10419831;28;20116;-75
2023/07/05 15:46:45;;;;;;;;;;;;;;;;;;10417395;28;20605;-74
2023/07/05 15:51:49;;;;;;;1.88;1.15;;;;;;;;;;10421409;28;20432;-74
2023/07/05 15:56:52;;;;;;;2.65;1.08;;;;;;;;;;10422246;28;20443;-74
2023/07/05 16:01:57;;;;;;;;;;;;;;;;;;10427305;28;20037;-74
2023/07/05 16:07:01;;;;;;;2.20;1.10;;;;;;;;;;10426654;28;19935;-73
2023/07/05 16:12:04;;;;;;;2.95;1.40;;;;;;;;;;10413563;28;20071;-74
2023/07/05 16:17:07;;;;;;;1.83;1.08;;;;;;;;;;10423588;28;20207;-74
2023/07/05 16:22:11;;;;;;;2.97;1.35;;;;;;;;;;10424478;28;20079;-73
2023/07/05 16:27:15;;;;;;;1.98;1.17;;;;;;;;;;10425060;28;20691;-74
2023/07/05 16:32:20;;;;;;;5.20;1.80;;;;;;;;;;10427637;28;20191;-74
2023/07/05 16:37:24;;;;;;;3.85;1.60;;;;;;;;;;10424864;28;20055;-74
2023/07/05 16:42:28;;;;;;;2.47;0.90;;;;;;;;;;10429876;28;20234;-74
2023/07/05 16:47:31;;;;;;;3.80;1.48;;;;;;;;;;10425156;28;20053;-74
2023/07/05 16:52:35;;;;;;;4.18;1.60;;;;;;;;;;10423809;28;20099;-75
2023/07/05 16:57:38;;;;;;;1.90;0.90;;;;;;;;;;10427019;28;20080;-75
2023/07/05 17:02:42;;;;;;;2.65;0.98;;;;;;;;;;10424488;28;20037;-75
2023/07/05 17:07:48;;;;;;;1.77;1.08;;;;;;;;;;10424614;28;20112;-75
2023/07/05 17:12:50;;;;;;;2.30;1.30;;;;;;;;;;10426138;28;20045;-76
2023/07/05 17:17:53;;;;;;;1.30;0.90;;;;;;;;;;10427263;28;20040;-74
2023/07/05 17:22:57;;;;;;;1.40;1.00;;;;;;;;;;10430932;28;20109;-75
2023/07/05 17:28:00;;;;;;;3.47;1.80;;;;;;;;;;10431550;28;20048;-74
2023/07/05 17:33:07;;;;;;;2.85;1.45;;;;;;;;;;10436827;28;20099;-75
2023/07/05 17:38:13;;;;;;;3.30;1.52;;;;;;;;;;10412979;28;20091;-74
2023/07/05 17:43:17;;;;;;;4.00;1.33;;;;;;;;;;10439294;28;20040;-75
2023/07/05 17:48:20;;;;;;;3.58;1.63;;;;;;;;;;10433591;28;20566;-75
2023/07/05 17:53:24;;;;;;;3.53;1.45;;;;;;;;;;10431301;28;20124;-75
2023/07/05 17:58:27;;;;;;;1.88;1.20;;;;;;;;;;10426940;28;20067;-76
2023/07/05 18:03:30;;;;;;;1.83;1.10;;;;;;;;;;10425775;28;20501;-75
2023/07/05 18:08:35;;;;;;;2.35;1.27;;;;;;;;;;10424379;28;20146;-76
2023/07/05 18:13:38;;;;;;;3.17;1.38;;;;;;;;;;10423633;28;20048;-76
2023/07/05 18:18:41;;;;;;;3.92;2.00;;;;;;;;;;10423687;28;20049;-75
2023/07/05 18:23:47;;;;;;;3.45;1.85;;;;;;;;;;10432388;28;20045;-74
2023/07/05 18:28:51;;;;;;;5.18;1.40;;;;;;;;;;10422147;28;20049;-74
2023/07/05 18:33:57;;;;;;;2.45;1.40;;;;;;;;;;10438070;28;20366;-74
2023/07/05 18:39:01;;;;;;;5.25;1.83;;;;;;;;;;10422533;28;20048;-73
2023/07/05 18:44:03;;;;;;;4.82;1.70;;;;;;;;;;10429872;28;20047;-75
2023/07/05 18:49:07;;;;;;;1.50;1.00;;;;;;;;;;10429958;28;20041;-74
2023/07/05 18:54:12;;;;;;;5.28;1.80;;;;;;;;;;10426671;28;20636;-73
2023/07/05 18:59:16;;;;;;;5.45;2.10;;;;;;;;;;10427407;28;20074;-77
2023/07/05 19:04:19;;;;;;;4.72;1.63;;;;;;;;;;10426381;28;20045;-77
2023/07/05 19:09:23;;;;;;;6.33;2.10;;;;;;;;;;10423018;28;20078;-76
2023/07/05 19:14:27;;;;;;;5.32;1.90;;;;;;;;;;10429678;28;20044;-76
2023/07/05 19:19:30;;;;;;;4.15;1.92;;;;;;;;;;10418120;28;20130;-75
2023/07/05 19:24:34;;;;;;;6.72;3.00;;;;;;;;;;10431327;28;20045;-75
2023/07/05 19:29:39;;;;;;;4.40;2.42;;;;;;;;;;10429562;28;20045;-76
2023/07/05 19:34:42;;;;;;;5.45;2.38;;;;;;;;;;10425436;28;20195;-75
2023/07/05 19:39:45;;;;;;;;;;;;;;;;;;10418300;28;20037;-75
2023/07/05 19:44:49;;;;;;;5.47;2.60;;;;;;;;;;10426453;28;19925;-75
2023/07/05 19:49:52;;;;;;;6.07;2.80;;;;;;;;;;10422367;28;20033;-74
2023/07/05 19:54:55;;;;;;;;;;;;;;;;;;10423685;28;20045;-75
2023/07/05 20:00:04;;;;;;;5.00;2.55;;;;;;;;;;10418884;28;19935;-76
2023/07/05 20:05:08;;;;;;;5.65;2.53;;;;;;;;;;10429865;28;20064;-75
2023/07/05 20:10:10;;;;;;;;;;;;;;;;;;10429754;28;20755;-74
2023/07/05 20:15:14;;;;;;;5.32;1.55;;;;;;;;;;10432598;28;19921;-75
2023/07/05 20:20:18;;;;;;;9.45;3.85;;;;;;;;;;10425157;28;20410;-74
2023/07/05 20:25:22;;;;;;;7.45;2.83;;;;;;;;;;10426084;28;20131;-75
2023/07/05 20:30:27;;;;;;;5.75;2.88;;;;;;;;;;10425367;28;20144;-76
2023/07/05 20:35:30;;;;;;;7.63;3.60;;;;;;;;;;10421282;28;20044;-76
2023/07/05 20:40:34;;;;;;;8.98;4.28;;;;;;;;;;10424399;28;20080;-76
2023/07/05 20:45:38;;;;;;;8.52;4.38;;;;;;;;;;10428502;28;20049;-76
2023/07/05 20:50:41;;;;;;;8.27;3.25;;;;;;;;;;10425088;28;20045;-77
2023/07/05 20:55:44;;;;;;;5.20;2.40;;;;;;;;;;10439581;28;20151;-76
2023/07/05 21:00:46;;;;;;;;;;;;;;;;;;10441066;28;20120;-77
2023/07/05 21:05:50;;;;;;;7.75;2.38;;;;;;;;;;10433940;28;19920;-75
2023/07/05 21:10:53;;;;;;;4.45;1.63;;;;;;;;;;10434742;28;20127;-76
2023/07/05 21:16:00;;;;;;;6.53;2.40;;;;;;;;;;10431545;28;20111;-76
2023/07/05 21:21:05;;;;;;;3.30;1.90;;;;;;;;;;10431584;28;20060;-76
2023/07/05 21:26:08;;;;;;;5.75;2.05;;;;;;;;;;10430071;28;20196;-77
2023/07/05 21:31:11;;;;;;;5.32;2.30;;;;;;;;;;10428908;28;20502;-76
2023/07/05 21:36:15;;;;;;;4.25;2.00;;;;;;;;;;10427263;28;20045;-77
2023/07/05 21:41:18;;;;;;;6.10;2.30;;;;;;;;;;10432741;28;20148;-76
2023/07/05 21:46:21;;;;;;;5.65;2.20;;;;;;;;;;10429732;28;20048;-75
2023/07/05 21:51:26;;;;;;;3.33;1.90;;;;;;;;;;10426038;28;20753;-75
2023/07/05 21:56:29;;;;;;;6.13;2.15;;;;;;;;;;10430271;28;20047;-76
2023/07/05 22:01:32;;;;;;;4.20;1.93;;;;;;;;;;10434279;28;20079;-77
2023/07/05 22:06:37;;;;;;;4.78;2.08;;;;;;;;;;10430866;28;20035;-76
2023/07/05 22:11:41;;;;;;;5.78;2.10;;;;;;;;;;10431836;28;20111;-76
2023/07/05 22:16:43;;;;;;;3.85;2.00;;;;;;;;;;10429231;28;20038;-77
2023/07/05 22:21:48;;;;;;;6.07;2.05;;;;;;;;;;10428047;28;20040;-76
2023/07/05 22:26:52;;;;;;;4.30;2.05;;;;;;;;;;10425321;28;20063;-75
2023/07/05 22:31:55;;;;;;;6.32;2.15;;;;;;;;;;10427433;28;20051;-75
2023/07/05 22:36:59;;;;;;;7.53;2.40;;;;;;;;;;10425677;28;20045;-74
2023/07/05 22:42:02;;;;;;;4.78;2.20;;;;;;;;;;10430266;28;20053;-75
2023/07/05 22:47:05;;;;;;;5.70;2.67;;;;;;;;;;10426025;28;20148;-76
2023/07/05 22:52:09;;;;;;;5.18;2.47;;;;;;;;;;10432555;28;20140;-75
2023/07/05 22:57:14;;;;;;;5.55;2.58;;;;;;;;;;10414521;28;20056;-76
2023/07/05 23:02:17;;;;;;;5.50;2.30;;;;;;;;;;10427936;28;20079;-76
2023/07/05 23:07:21;;;;;;;6.03;2.63;;;;;;;;;;10431437;28;20044;-75
2023/07/05 23:12:24;;;;;;;4.32;2.05;;;;;;;;;;10429712;28;20163;-76
2023/07/05 23:17:26;;;;;;;4.85;2.60;;;;;;;;;;10423193;28;20041;-76
2023/07/05 23:22:30;;;;;;;7.22;2.63;;;;;;;;;;10426394;28;20072;-76
2023/07/05 23:27:33;;;;;;;7.22;2.47;;;;;;;;;;10421010;28;20047;-75
2023/07/05 23:32:37;;;;;;;5.35;2.72;;;;;;;;;;10426769;28;20362;-76
2023/07/05 23:37:41;;;;;;;5.13;2.33;;;;;;;;;;10423105;28;20509;-75
2023/07/05 23:42:45;;;;;;;5.82;2.60;;;;;;;;;;10426444;28;20041;-75
2023/07/05 23:47:51;;;;;;;7.07;2.40;;;;;;;;;;10427722;28;20103;-75
2023/07/05 23:52:55;;;;;;;5.15;2.55;;;;;;;;;;10421378;28;20052;-73
2023/07/05 23:58:02;;;;;;;5.60;2.38;;;;;;;;;;10413380;28;20168;-74
